Time;durP1;ratioP1;P1;durP2;ratioP2;P2;SDS_P1;SDS_P2;PMS_P1;PMS_P2;Temp;Humidity;BMP_temperature;BMP_pressure;BME280_temperature;BME280_humidity;BME280_pressure;Samples;Min_cycle;Max_cycle;Signal;HPM_P1;HPM_P2
2021/04/23 00:02:06;;;;;;;9.50;4.67;;;;;;;10.59;98.86;101104.67;1821775;78;21121;-56
2021/04/23 00:04:34;;;;;;;7.45;4.70;;;;;;;10.59;98.97;101106.02;1821752;78;21050;-56
2021/04/23 00:07:02;;;;;;;9.75;4.50;;;;;;;10.60;99.32;101096.16;1821906;78;21188;-56
2021/04/23 00:09:33;;;;;;;11.80;4.50;;;;;;;10.59;99.46;101093.95;1821912;78;21142;-58
2021/04/23 00:12:12;;;;;;;8.20;4.35;;;;;;;10.60;99.58;101091.68;1821837;78;21126;-57
2021/04/23 00:14:47;;;;;;;7.92;5.03;;;;;;;10.60;99.75;101090.34;1821892;78;21126;-57
2021/04/23 00:17:16;;;;;;;11.10;5.30;;;;;;;10.60;99.82;101086.32;1821870;78;21067;-57
2021/04/23 00:19:45;;;;;;;7.60;4.85;;;;;;;10.57;100.00;101093.12;1821963;78;21132;-56
2021/04/23 00:22:13;;;;;;;10.88;5.25;;;;;;;10.57;100.00;101089.09;1821811;78;21054;-57
2021/04/23 00:24:41;;;;;;;5.67;4.05;;;;;;;10.55;100.00;101090.95;1821916;78;21082;-57
2021/04/23 00:27:08;;;;;;;9.63;4.65;;;;;;;10.54;100.00;101097.68;1821796;78;21165;-57
2021/04/23 00:29:36;;;;;;;9.63;4.78;;;;;;;10.52;100.00;101084.34;1821993;78;21027;-57
2021/04/23 00:34:51;;;;;;;8.88;4.87;;;;;;;10.53;100.00;101090.12;1821800;78;21114;-57
2021/04/23 00:37:19;;;;;;;13.25;5.40;;;;;;;10.54;100.00;101081.59;1824364;78;21149;-58
2021/04/23 00:39:48;;;;;;;8.08;4.62;;;;;;;10.52;100.00;101087.02;1827983;78;21038;-57
2021/04/23 00:42:16;;;;;;;9.08;4.67;;;;;;;10.51;100.00;101089.73;1828151;78;22172;-57
2021/04/23 00:44:43;;;;;;;8.33;5.05;;;;;;;10.47;100.00;101088.93;1828142;78;21739;-57
2021/04/23 00:47:11;;;;;;;9.30;4.60;;;;;;;10.47;100.00;101084.91;1828019;78;21192;-57
2021/04/23 00:49:39;;;;;;;9.73;4.85;;;;;;;10.43;100.00;101088.16;1827915;78;21135;-57
2021/04/23 00:52:07;;;;;;;10.70;5.67;;;;;;;10.43;100.00;101083.25;1828031;78;21118;-57
2021/04/23 00:54:34;;;;;;;8.88;5.17;;;;;;;10.41;100.00;101083.76;1827982;78;21022;-57
2021/04/23 00:57:03;;;;;;;10.13;5.05;;;;;;;10.38;100.00;101079.80;1800981;78;21692;-57
2021/04/23 00:59:31;;;;;;;12.45;5.25;;;;;;;10.36;100.00;101073.61;1760390;81;21105;-57
2021/04/23 01:02:07;;;;;;;8.55;4.85;;;;;;;10.34;100.00;101084.36;1774552;80;21142;-57
2021/04/23 01:04:35;;;;;;;9.25;5.75;;;;;;;10.33;100.00;101075.91;1760544;81;21054;-57
2021/04/23 01:07:05;;;;;;;6.70;5.08;;;;;;;10.32;100.00;101080.41;1774581;80;21056;-57
2021/04/23 01:09:32;;;;;;;9.80;5.22;;;;;;;10.31;100.00;101075.07;1760569;81;21324;-57
2021/04/23 01:12:00;;;;;;;10.40;5.53;;;;;;;10.29;100.00;101077.81;1774509;80;21154;-58
2021/04/23 01:14:28;;;;;;;10.75;6.12;;;;;;;10.29;100.00;101080.49;1760675;81;21750;-56
2021/04/23 01:16:56;;;;;;;11.50;6.75;;;;;;;10.27;100.00;101072.92;1774656;80;21182;-57
2021/04/23 01:19:26;;;;;;;12.70;6.28;;;;;;;10.26;100.00;101082.37;1760552;81;21141;-58
2021/04/23 01:21:54;;;;;;;9.15;5.83;;;;;;;10.23;100.00;101075.28;1774717;80;22250;-58
2021/04/23 01:24:22;;;;;;;12.37;5.80;;;;;;;10.22;100.00;101073.53;1760388;81;21117;-57
2021/04/23 01:26:53;;;;;;;11.12;6.17;;;;;;;10.20;100.00;101068.67;1774592;80;21159;-58
2021/04/23 01:29:23;;;;;;;11.33;5.78;;;;;;;10.20;100.00;101074.52;1760417;81;21137;-57
2021/04/23 01:31:55;;;;;;;10.38;5.35;;;;;;;10.20;100.00;101066.48;1774596;80;21123;-57
2021/04/23 01:34:32;;;;;;;10.43;5.95;;;;;;;10.20;100.00;101063.31;1760469;81;21351;-57
2021/04/23 01:37:01;;;;;;;9.18;5.97;;;;;;;10.20;100.00;101064.66;1774293;80;21259;-57
2021/04/23 01:39:31;;;;;;;10.53;5.30;;;;;;;10.20;100.00;101057.95;1760402;81;21184;-57
2021/04/23 01:41:59;;;;;;;12.00;5.78;;;;;;;10.19;100.00;101056.20;1774516;80;21201;-57
2021/04/23 01:44:27;;;;;;;9.60;5.92;;;;;;;10.19;100.00;101050.84;1760498;81;21061;-57
2021/04/23 01:46:55;;;;;;;12.45;6.20;;;;;;;10.20;100.00;101057.95;1774636;80;21491;-57
2021/04/23 01:49:23;;;;;;;8.08;5.95;;;;;;;10.22;100.00;101051.23;1760414;81;21129;-57
2021/04/23 01:51:55;;;;;;;14.05;5.70;;;;;;;10.23;100.00;101048.48;1774581;80;21123;-57
2021/04/23 01:54:23;;;;;;;9.98;5.90;;;;;;;10.24;100.00;101046.22;1760502;81;21204;-57
2021/04/23 01:56:52;;;;;;;9.63;6.33;;;;;;;10.29;100.00;101058.16;1786883;79;21156;-57
2021/04/23 01:59:22;;;;;;;9.68;5.90;;;;;;;10.30;100.00;101060.81;1812055;79;21370;-57
2021/04/23 02:01:50;;;;;;;15.18;5.95;;;;;;;10.32;100.00;101061.64;1811511;79;21490;-57
2021/04/23 02:04:19;;;;;;;15.83;5.12;;;;;;;10.31;100.00;101059.89;1812392;79;21175;-57
2021/04/23 02:06:49;;;;;;;8.73;5.42;;;;;;;10.32;100.00;101048.69;1812247;79;21635;-58
2021/04/23 02:09:17;;;;;;;11.68;5.70;;;;;;;10.33;100.00;101051.78;1812298;79;21060;-58
2021/04/23 02:11:46;;;;;;;14.90;4.97;;;;;;;10.34;100.00;101041.95;1812285;79;21277;-58
2021/04/23 02:14:14;;;;;;;12.25;5.47;;;;;;;10.35;100.00;101045.05;1812157;79;21061;-58
2021/04/23 02:16:42;;;;;;;12.65;6.65;;;;;;;10.37;100.00;101044.54;1812308;79;21120;-58
2021/04/23 02:19:11;;;;;;;9.48;5.97;;;;;;;10.37;100.00;101047.22;1812209;79;21096;-59
2021/04/23 02:21:39;;;;;;;9.65;5.30;;;;;;;10.36;100.00;101049.00;1812321;79;21127;-58
2021/04/23 02:24:08;;;;;;;9.83;5.10;;;;;;;10.35;100.00;101042.37;1812261;79;21354;-58
2021/04/23 02:26:37;;;;;;;10.40;5.30;;;;;;;10.32;100.00;101045.56;1812221;79;21172;-59
2021/04/23 02:29:09;;;;;;;9.03;4.83;;;;;;;10.34;100.00;101046.84;1812267;79;21544;-57
2021/04/23 02:31:38;;;;;;;15.65;5.22;;;;;;;10.35;100.00;101039.69;1812219;79;21072;-59
2021/04/23 02:34:09;;;;;;;12.88;5.70;;;;;;;10.37;100.00;101049.42;1812256;79;21486;-58
2021/04/23 02:36:37;;;;;;;9.75;6.00;;;;;;;10.40;100.00;101050.73;1812309;79;21370;-58
2021/04/23 02:39:06;;;;;;;12.53;5.28;;;;;;;10.45;100.00;101049.23;1811823;79;21087;-58
2021/04/23 02:41:34;;;;;;;10.48;5.65;;;;;;;10.46;100.00;101057.25;1811941;79;21052;-58
2021/04/23 02:44:02;;;;;;;10.70;5.47;;;;;;;10.50;100.00;101062.06;1811878;79;21131;-58
2021/04/23 02:46:30;;;;;;;13.62;5.58;;;;;;;10.52;99.67;101068.25;1811937;79;21152;-58
2021/04/23 02:48:58;;;;;;;13.85;5.28;;;;;;;10.55;99.46;101076.65;1812175;79;22452;-58
2021/04/23 02:51:30;;;;;;;12.65;5.92;;;;;;;10.57;99.27;101078.81;1811802;79;21127;-58
2021/04/23 02:53:58;;;;;;;14.43;6.33;;;;;;;10.58;98.92;101074.77;1811955;79;21093;-58
2021/04/23 02:56:26;;;;;;;15.13;6.00;;;;;;;10.59;98.70;101069.82;1811564;79;21114;-59
2021/04/23 02:58:54;;;;;;;11.73;5.62;;;;;;;10.59;98.49;101065.80;1756848;81;21070;-58
2021/04/23 03:01:26;;;;;;;9.70;4.95;;;;;;;10.61;98.35;101063.08;1804172;79;21228;-58
2021/04/23 03:03:54;;;;;;;10.32;5.55;;;;;;;10.60;98.25;101071.57;1756757;81;21078;-56
2021/04/23 03:06:22;;;;;;;11.93;4.35;;;;;;;10.62;98.15;101072.88;1804220;79;20992;-56
2021/04/23 03:08:50;;;;;;;12.15;4.90;;;;;;;10.65;98.04;101083.51;1756745;81;21118;-57
2021/04/23 03:11:22;;;;;;;9.73;4.67;;;;;;;10.66;97.92;101088.39;1804311;79;21083;-57
2021/04/23 03:13:57;;;;;;;12.47;5.62;;;;;;;10.67;97.87;101092.39;1756694;81;21177;-56
2021/04/23 03:16:25;;;;;;;9.48;4.70;;;;;;;10.68;97.82;101083.86;1804143;79;21483;-57
2021/04/23 03:18:53;;;;;;;8.95;5.03;;;;;;;10.69;97.84;101078.47;1756741;81;21110;-56
2021/04/23 03:21:25;;;;;;;9.90;4.33;;;;;;;10.72;97.77;101080.16;1804212;79;21102;-58
2021/04/23 03:23:53;;;;;;;7.45;4.72;;;;;;;10.76;97.64;101069.78;1756719;81;21134;-58
2021/04/23 03:26:22;;;;;;;10.70;4.75;;;;;;;10.80;97.51;101067.41;1804254;79;21146;-57
2021/04/23 03:28:49;;;;;;;11.30;5.97;;;;;;;10.85;97.34;101066.80;1804176;79;21167;-57
2021/04/23 03:31:19;;;;;;;13.93;6.17;;;;;;;10.92;97.04;101062.57;1756831;81;21094;-56
2021/04/23 03:33:46;;;;;;;10.23;5.15;;;;;;;10.97;96.78;101068.22;1756763;81;21189;-58
2021/04/23 03:36:14;;;;;;;10.50;5.08;;;;;;;11.01;96.63;101071.69;1804275;79;21143;-56
2021/04/23 03:38:45;;;;;;;17.35;5.50;;;;;;;11.07;96.41;101075.52;1742540;81;21206;-58
2021/04/23 03:41:18;;;;;;;12.00;4.65;;;;;;;11.12;96.15;101076.23;1761337;81;21141;-57
2021/04/23 03:43:46;;;;;;;7.00;4.30;;;;;;;11.17;95.98;101077.44;1730767;82;21542;-57
2021/04/23 03:46:14;;;;;;;8.88;5.08;;;;;;;11.22;95.84;101088.89;1761261;81;21090;-57
2021/04/23 03:48:45;;;;;;;18.62;5.75;;;;;;;11.27;95.69;101084.28;1731177;82;21111;-57
2021/04/23 03:51:14;;;;;;;11.38;5.28;;;;;;;11.34;95.41;101084.07;1761301;81;21373;-57
2021/04/23 03:53:42;;;;;;;17.42;6.78;;;;;;;11.36;95.21;101087.09;1731076;82;21133;-57
2021/04/23 03:56:10;;;;;;;11.40;4.95;;;;;;;11.38;95.10;101085.23;1762673;79;21540;-57
2021/04/23 03:58:37;;;;;;;13.78;5.03;;;;;;;11.39;95.07;101084.34;1797812;79;21518;-58
2021/04/23 04:01:15;;;;;;;10.60;5.58;;;;;;;11.44;95.10;101086.40;1797779;79;21148;-56
2021/04/23 04:03:44;;;;;;;15.85;6.05;;;;;;;11.54;94.85;101091.45;1797644;79;21201;-58
2021/04/23 04:06:11;;;;;;;11.80;4.85;;;;;;;11.61;94.51;101075.56;1797637;79;21144;-56
2021/04/23 04:08:40;;;;;;;14.85;5.40;;;;;;;11.71;93.94;101078.78;1797542;79;21132;-57
2021/04/23 04:11:09;;;;;;;20.15;4.80;;;;;;;11.77;93.54;101080.38;1797676;79;21168;-57
2021/04/23 04:13:38;;;;;;;14.50;4.92;;;;;;;11.86;93.13;101086.80;1797645;79;20934;-57
2021/04/23 04:16:06;;;;;;;10.98;5.08;;;;;;;11.95;92.65;101095.86;1797675;79;21831;-56
2021/04/23 04:18:34;;;;;;;14.05;5.33;;;;;;;12.02;92.11;101092.05;1797812;79;21233;-56
2021/04/23 04:21:02;;;;;;;16.93;5.08;;;;;;;12.06;91.51;101102.23;1797718;79;21175;-58
2021/04/23 04:23:30;;;;;;;14.30;4.97;;;;;;;12.09;91.31;101090.51;1797678;79;21151;-57
2021/04/23 04:25:59;;;;;;;11.63;4.65;;;;;;;12.14;91.19;101088.04;1797743;79;21105;-57
2021/04/23 04:28:28;;;;;;;12.93;5.17;;;;;;;12.21;90.80;101080.64;1797780;79;21509;-58
2021/04/23 04:30:56;;;;;;;10.75;4.58;;;;;;;12.27;90.45;101082.23;1797634;79;21082;-57
2021/04/23 04:33:25;;;;;;;10.32;4.60;;;;;;;12.34;90.16;101081.06;1793319;79;21088;-57
2021/04/23 04:35:53;;;;;;;10.40;4.25;;;;;;;12.37;89.75;101080.94;1797612;79;21124;-57
2021/04/23 04:38:20;;;;;;;12.40;4.45;;;;;;;12.37;89.46;101077.39;1798206;79;21104;-56
2021/04/23 04:40:49;;;;;;;15.58;5.55;;;;;;;12.36;89.42;101075.16;1800081;79;21381;-57
2021/04/23 04:43:19;;;;;;;12.55;4.65;;;;;;;12.40;89.39;101086.69;1799894;79;21080;-57
2021/04/23 04:45:47;;;;;;;20.55;5.25;;;;;;;12.42;89.25;101086.16;1800024;79;21044;-57
2021/04/23 04:48:16;;;;;;;21.87;4.95;;;;;;;12.46;89.03;101083.75;1800037;79;21072;-57
2021/04/23 04:50:50;;;;;;;13.65;4.95;;;;;;;12.45;88.84;101085.59;1800217;79;21052;-57
2021/04/23 04:53:19;;;;;;;10.10;4.65;;;;;;;12.46;88.82;101087.34;1800200;79;21371;-57
2021/04/23 04:55:49;;;;;;;11.78;5.37;;;;;;;12.47;88.69;101084.17;1800084;79;21056;-57
2021/04/23 04:58:19;;;;;;;17.25;5.15;;;;;;;12.48;88.74;101087.27;1771325;79;21396;-57
2021/04/23 05:00:47;;;;;;;12.23;4.33;;;;;;;12.50;88.74;101086.77;1790271;80;21069;-58
2021/04/23 05:03:14;;;;;;;9.85;3.70;;;;;;;12.51;88.65;101081.80;1757584;81;21075;-59
2021/04/23 05:05:43;;;;;;;11.30;4.75;;;;;;;12.52;88.71;101080.86;1790404;80;21683;-57
2021/04/23 05:08:11;;;;;;;14.50;5.17;;;;;;;12.56;88.75;101082.48;1757416;81;21158;-57
2021/04/23 05:10:38;;;;;;;12.45;5.03;;;;;;;12.60;88.65;101085.95;1790364;80;21078;-58
2021/04/23 05:13:06;;;;;;;12.63;4.37;;;;;;;12.66;88.50;101076.75;1757529;81;21051;-57
2021/04/23 05:15:33;;;;;;;14.55;4.70;;;;;;;12.75;88.25;101076.41;1790378;80;21120;-57
2021/04/23 05:18:01;;;;;;;14.60;4.40;;;;;;;12.80;87.83;101073.06;1757491;81;21388;-58
2021/04/23 05:20:28;;;;;;;14.95;4.90;;;;;;;12.89;87.61;101069.99;1790346;80;21174;-57
2021/04/23 05:22:57;;;;;;;10.13;3.90;;;;;;;12.95;87.01;101064.84;1757530;81;21059;-57
2021/04/23 05:25:25;;;;;;;17.23;4.00;;;;;;;13.01;86.82;101074.01;1790391;80;22405;-57
2021/04/23 05:27:53;;;;;;;15.03;4.58;;;;;;;13.10;86.36;101079.98;1757513;81;21171;-58
2021/04/23 05:30:26;;;;;;;9.73;4.58;;;;;;;13.17;85.93;101077.44;1790328;80;21325;-58
2021/04/23 05:32:53;;;;;;;13.98;4.80;;;;;;;13.21;85.70;101072.81;1757419;81;21158;-58
2021/04/23 05:35:23;;;;;;;11.90;4.70;;;;;;;13.25;85.36;101075.78;1789720;80;21153;-58
2021/04/23 05:37:51;;;;;;;12.37;4.50;;;;;;;13.26;85.16;101068.11;1790354;80;21580;-56
2021/04/23 05:40:27;;;;;;;11.93;4.50;;;;;;;13.26;84.93;101081.12;1764928;81;21059;-58
2021/04/23 05:42:54;;;;;;;12.90;5.12;;;;;;;13.24;84.78;101080.77;1795828;79;21465;-58
2021/04/23 05:45:23;;;;;;;15.30;4.60;;;;;;;13.18;85.07;101085.47;1798494;79;21181;-57
2021/04/23 05:47:52;;;;;;;16.73;4.28;;;;;;;13.15;85.28;101084.25;1798437;79;21106;-57
2021/04/23 05:50:20;;;;;;;9.35;3.83;;;;;;;13.15;85.51;101086.94;1798496;79;21590;-58
2021/04/23 05:52:48;;;;;;;15.93;5.03;;;;;;;13.17;85.58;101089.55;1782655;79;21106;-58
2021/04/23 05:55:17;;;;;;;10.20;4.97;;;;;;;13.20;85.63;101078.66;1795602;78;21185;-58
2021/04/23 05:57:45;;;;;;;13.70;5.75;;;;;;;13.24;85.65;101079.41;1799924;78;21093;-57
2021/04/23 06:00:18;;;;;;;14.70;6.78;;;;;;;13.31;85.42;101075.52;1767116;80;20999;-58
2021/04/23 06:02:49;;;;;;;11.68;5.97;;;;;;;13.42;85.24;101073.27;1774007;80;20930;-58
2021/04/23 06:05:18;;;;;;;11.93;5.03;;;;;;;13.54;84.81;101080.45;1774115;80;21061;-58
2021/04/23 06:07:45;;;;;;;9.60;4.87;;;;;;;13.65;84.24;101073.26;1774162;80;21290;-58
2021/04/23 06:10:14;;;;;;;13.13;4.28;;;;;;;13.73;83.71;101075.17;1774090;80;21203;-57
2021/04/23 06:12:43;;;;;;;9.28;4.28;;;;;;;13.84;83.27;101076.05;1773964;80;21124;-59
2021/04/23 06:15:14;;;;;;;10.68;4.72;;;;;;;13.95;82.67;101070.20;1773477;80;21175;-58
2021/04/23 06:17:46;;;;;;;9.25;3.85;;;;;;;14.04;82.34;101072.02;1782788;79;21170;-57
2021/04/23 06:20:19;;;;;;;15.15;4.90;;;;;;;14.14;81.95;101064.84;1782725;79;21486;-58
2021/04/23 06:22:47;;;;;;;15.93;4.45;;;;;;;14.22;81.56;101070.75;1791320;79;21113;-57
2021/04/23 06:25:16;;;;;;;12.33;4.15;;;;;;;14.32;81.27;101071.22;1786326;79;21063;-57
2021/04/23 06:27:46;;;;;;;11.28;4.28;;;;;;;14.41;80.84;101066.77;1795277;79;21176;-58
2021/04/23 06:30:19;;;;;;;10.55;4.17;;;;;;;14.48;80.36;101074.11;1810852;78;21137;-57
2021/04/23 06:32:46;;;;;;;10.23;4.37;;;;;;;14.51;79.99;101073.95;1816688;78;21432;-57
2021/04/23 06:35:18;;;;;;;18.50;4.60;;;;;;;14.47;79.80;101073.22;1813931;78;21507;-57
2021/04/23 06:37:45;;;;;;;10.85;4.17;;;;;;;14.42;79.99;101069.86;1816516;78;21077;-57
2021/04/23 06:40:15;;;;;;;12.07;4.55;;;;;;;14.40;80.32;101071.76;1806039;78;21114;-57
2021/04/23 06:42:42;;;;;;;14.15;4.28;;;;;;;14.42;80.32;101073.02;1806967;79;21106;-57
2021/04/23 06:45:13;;;;;;;15.38;4.83;;;;;;;14.46;80.34;101072.81;1804385;79;21188;-58
2021/04/23 06:47:42;;;;;;;13.13;4.60;;;;;;;14.54;80.21;101072.47;1804508;79;21154;-57
2021/04/23 06:50:13;;;;;;;11.70;4.40;;;;;;;14.64;79.79;101073.37;1804161;79;21166;-57
2021/04/23 06:52:42;;;;;;;15.58;5.05;;;;;;;14.68;79.39;101073.16;1804478;79;21007;-58
2021/04/23 06:55:11;;;;;;;12.13;4.95;;;;;;;14.75;79.21;101075.14;1786702;80;21165;-57
2021/04/23 06:57:40;;;;;;;21.50;5.17;;;;;;;14.80;79.01;101078.48;1789866;79;22164;-57
2021/04/23 07:00:13;;;;;;;13.13;4.67;;;;;;;14.85;78.82;101072.38;1763476;81;21097;-57
2021/04/23 07:02:42;;;;;;;15.25;4.60;;;;;;;14.89;78.64;101076.68;1775270;80;21111;-58
2021/04/23 07:05:11;;;;;;;12.82;4.87;;;;;;;14.95;78.52;101077.36;1763597;81;21482;-58
2021/04/23 07:07:39;;;;;;;15.05;5.35;;;;;;;15.00;78.17;101078.00;1775258;80;21146;-58
2021/04/23 07:10:11;;;;;;;15.53;5.62;;;;;;;15.02;77.95;101082.85;1763453;81;21370;-56
2021/04/23 07:12:38;;;;;;;10.08;4.78;;;;;;;15.06;77.65;101087.64;1775296;80;21090;-58
2021/04/23 07:15:10;;;;;;;11.95;5.25;;;;;;;15.00;77.65;101099.60;1763465;81;21082;-57
2021/04/23 07:17:37;;;;;;;15.13;4.50;;;;;;;14.96;77.68;101107.45;1788268;79;21124;-57
2021/04/23 07:20:09;;;;;;;9.25;4.10;;;;;;;15.00;77.44;101103.66;1795551;79;21054;-58
2021/04/23 07:22:39;;;;;;;10.68;4.30;;;;;;;14.99;77.17;101105.95;1794921;79;21196;-58
2021/04/23 07:25:08;;;;;;;11.65;4.30;;;;;;;14.88;77.52;101115.91;1787722;79;21216;-57
2021/04/23 07:27:43;;;;;;;10.35;4.55;;;;;;;14.79;78.13;101110.93;1782563;79;21141;-57
2021/04/23 07:30:20;;;;;;;11.50;4.00;;;;;;;14.74;78.75;101113.88;1790722;79;21208;-57
2021/04/23 07:32:48;;;;;;;11.45;3.95;;;;;;;14.70;79.52;101113.55;1811115;78;21061;-57
2021/04/23 07:35:15;;;;;;;12.03;4.75;;;;;;;14.76;80.00;101124.12;1796183;79;21244;-57
2021/04/23 07:37:43;;;;;;;12.88;4.65;;;;;;;14.80;80.04;101112.22;1790257;79;21371;-57
2021/04/23 07:40:13;;;;;;;8.38;4.28;;;;;;;14.82;80.13;101126.52;1820259;78;21471;-58
2021/04/23 07:42:42;;;;;;;11.48;4.30;;;;;;;14.91;80.27;101129.27;1821856;78;21113;-57
2021/04/23 07:45:13;;;;;;;12.43;4.05;;;;;;;15.06;79.89;101115.99;1798147;79;21128;-57
2021/04/23 07:47:42;;;;;;;11.25;5.05;;;;;;;15.21;79.52;101120.63;1824573;78;21347;-57
2021/04/23 07:50:13;;;;;;;10.72;4.78;;;;;;;15.35;79.01;101125.35;1824587;78;21145;-57
2021/04/23 07:52:40;;;;;;;10.05;4.65;;;;;;;15.45;78.67;101113.16;1798309;79;21125;-57
2021/04/23 07:55:10;;;;;;;8.70;4.67;;;;;;;15.54;78.64;101106.88;1824513;78;21070;-57
2021/04/23 07:57:38;;;;;;;8.78;3.70;;;;;;;15.64;78.62;101105.48;1796662;79;21137;-57
2021/04/23 08:00:07;;;;;;;13.62;4.78;;;;;;;15.72;78.44;101116.77;1828616;78;21362;-57
2021/04/23 08:02:40;;;;;;;10.95;4.95;;;;;;;15.78;78.54;101113.34;1740481;81;21192;-56
2021/04/23 08:05:11;;;;;;;12.28;5.25;;;;;;;15.79;78.66;101105.63;1798218;79;21182;-57
2021/04/23 08:07:40;;;;;;;15.30;6.53;;;;;;;15.79;79.19;101098.87;1762870;81;21153;-58
2021/04/23 08:10:11;;;;;;;14.20;6.78;;;;;;;15.70;79.81;101098.89;1766892;81;21077;-57
2021/04/23 08:12:41;;;;;;;13.90;6.60;;;;;;;15.68;80.22;101098.95;1798539;79;22171;-57
2021/04/23 08:15:11;;;;;;;21.77;7.03;;;;;;;15.72;80.20;101105.95;1798586;79;21218;-58
2021/04/23 08:17:40;;;;;;;14.63;7.45;;;;;;;15.82;79.72;101117.66;1798418;79;21173;-57
2021/04/23 08:20:11;;;;;;;16.60;7.15;;;;;;;15.90;78.98;101121.73;1798475;79;21177;-57
2021/04/23 08:22:40;;;;;;;16.75;7.85;;;;;;;15.96;77.85;101122.39;1798498;79;21156;-58
2021/04/23 08:25:10;;;;;;;12.37;6.10;;;;;;;15.97;77.55;101104.71;1798592;79;21385;-58
2021/04/23 08:27:39;;;;;;;11.28;6.12;;;;;;;16.02;76.69;101116.16;1798404;79;20929;-57
2021/04/23 08:30:09;;;;;;;16.05;5.95;;;;;;;16.06;76.08;101120.08;1798564;79;20931;-58
2021/04/23 08:32:37;;;;;;;12.58;6.90;;;;;;;16.12;75.79;101127.38;1798435;79;21085;-57
2021/04/23 08:35:08;;;;;;;18.48;6.75;;;;;;;16.25;75.21;101124.92;1798375;79;36593;-56
2021/04/23 08:37:39;;;;;;;16.62;7.03;;;;;;;16.35;73.83;101111.75;1798446;79;22312;-57
2021/04/23 08:40:08;;;;;;;13.08;6.60;;;;;;;16.35;72.37;101110.89;1796979;79;21082;-58
2021/04/23 08:42:38;;;;;;;11.30;6.20;;;;;;;16.34;72.20;101115.41;1795422;80;21078;-58
2021/04/23 08:45:10;;;;;;;18.70;6.60;;;;;;;16.50;71.49;101111.89;1795376;80;21058;-58
2021/04/23 08:47:39;;;;;;;18.70;7.60;;;;;;;16.58;70.01;101096.98;1819020;78;21074;-57
2021/04/23 08:50:10;;;;;;;14.73;6.90;;;;;;;16.59;68.97;101101.93;1792748;80;21363;-57
2021/04/23 08:52:45;;;;;;;14.40;6.03;;;;;;;16.67;69.50;101103.72;1793691;80;21180;-57
2021/04/23 08:55:17;;;;;;;11.95;6.00;;;;;;;16.83;69.08;101106.45;1827914;78;21004;-57
2021/04/23 08:57:47;;;;;;;13.32;7.05;;;;;;;17.00;68.65;101096.54;1823602;78;21066;-58
2021/04/23 09:00:16;;;;;;;12.93;7.05;;;;;;;17.11;67.58;101087.30;1828050;78;21446;-57
2021/04/23 09:02:44;;;;;;;13.40;6.80;;;;;;;17.20;67.33;101081.84;1733055;81;21378;-58
2021/04/23 09:05:13;;;;;;;12.20;6.30;;;;;;;17.37;66.10;101087.66;1808171;79;21142;-57
2021/04/23 09:07:41;;;;;;;14.20;6.15;;;;;;;17.58;65.19;101084.65;1760550;81;21206;-58
2021/04/23 09:10:12;;;;;;;10.03;5.58;;;;;;;17.73;66.77;101082.36;1781298;79;21142;-58
2021/04/23 09:12:41;;;;;;;14.45;5.72;;;;;;;17.75;66.44;101079.06;1760302;81;21153;-57
2021/04/23 09:15:24;;;;;;;16.70;5.92;;;;;;;17.63;66.13;101077.58;1807327;79;21153;-58
2021/04/23 09:18:21;;;;;;;16.65;6.20;;;;;;;17.43;66.72;101081.87;1760411;81;21158;-60
2021/04/23 09:20:51;;;;;;;13.58;6.40;;;;;;;17.32;67.16;101085.67;1808106;79;21107;-58
2021/04/23 09:23:22;;;;;;;15.35;6.95;;;;;;;17.26;67.72;101087.39;1759034;81;21098;-57
2021/04/23 09:25:52;;;;;;;17.17;6.45;;;;;;;17.22;67.51;101087.19;1808107;79;21142;-59
2021/04/23 09:28:41;;;;;;;13.55;6.03;;;;;;;17.15;67.70;101090.26;1808302;79;21583;-58
2021/04/23 09:31:35;;;;;;;13.80;6.30;;;;;;;17.02;67.86;101076.55;1772243;80;21110;-58
2021/04/23 09:34:06;;;;;;;16.85;5.87;;;;;;;16.88;68.06;101078.63;1778853;79;21566;-59
2021/04/23 09:36:44;;;;;;;13.55;6.08;;;;;;;16.72;68.57;101083.17;1792349;80;21584;-58
2021/04/23 09:39:17;;;;;;;11.35;6.03;;;;;;;16.55;69.21;101075.50;1789880;80;22342;-57
2021/04/23 09:42:01;;;;;;;;;;;;;;;16.43;69.77;101074.80;1812814;78;21189;-59
2021/04/23 09:44:36;;;;;;;16.95;6.55;;;;;;;16.29;70.47;101076.45;1809562;78;20230;-58
2021/04/23 09:47:18;;;;;;;14.40;5.97;;;;;;;16.26;70.81;101075.27;1795537;80;21077;-57
2021/04/23 09:49:52;;;;;;;11.95;6.22;;;;;;;16.21;70.86;101073.27;1801486;78;21503;-59
2021/04/23 09:52:20;;;;;;;11.97;5.93;;;;;;;16.09;71.58;101066.68;1808482;78;21581;-59
2021/04/23 09:54:52;;;;;;;14.18;6.10;;;;;;;16.00;71.69;101072.09;1794048;78;21538;-59
2021/04/23 09:57:36;;;;;;;13.53;6.42;;;;;;;15.89;71.92;101075.86;1808976;78;21829;-59
2021/04/23 10:00:05;;;;;;;13.95;6.58;;;;;;;15.70;72.53;101074.07;1782718;79;21141;-58
2021/04/23 10:02:32;;;;;;;14.83;6.70;;;;;;;15.47;73.14;101072.53;1783745;80;21118;-59
2021/04/23 10:05:01;;;;;;;19.40;6.35;;;;;;;15.22;74.21;101075.11;1784354;80;21122;-59
2021/04/23 10:07:35;;;;;;;12.30;6.67;;;;;;;14.98;75.26;101075.86;1788322;80;22292;-59
2021/04/23 10:10:13;;;;;;;15.13;7.00;;;;;;;14.71;76.41;101062.73;1772244;80;21193;-58
2021/04/23 10:12:50;;;;;;;18.02;6.80;;;;;;;14.49;77.54;101074.51;1777460;80;21102;-58
2021/04/23 10:15:28;;;;;;;15.53;6.55;;;;;;;14.26;78.46;101077.79;1811249;78;21165;-58
2021/04/23 10:18:01;;;;;;;17.67;6.35;;;;;;;14.06;79.58;101087.24;1790234;80;21070;-57
2021/04/23 10:20:43;;;;;;;18.27;7.20;;;;;;;13.89;80.87;101092.89;1796133;79;22289;-58
2021/04/23 10:23:16;;;;;;;12.80;7.17;;;;;;;13.75;82.30;101102.44;1811024;78;21133;-58
2021/04/23 10:25:44;;;;;;;15.13;8.33;;;;;;;13.65;84.16;101104.23;1815998;78;21148;-57
2021/04/23 10:28:18;;;;;;;16.42;6.80;;;;;;;13.58;85.88;101101.81;1786970;79;21562;-57
2021/04/23 10:30:48;;;;;;;18.10;7.78;;;;;;;13.54;87.75;101104.69;1818965;78;21046;-58
2021/04/23 10:33:19;;;;;;;13.90;7.40;;;;;;;13.54;89.98;101090.77;1777343;80;21276;-58
2021/04/23 10:35:49;;;;;;;14.78;7.20;;;;;;;13.58;90.70;101107.66;1805440;78;21228;-60
2021/04/23 10:38:23;;;;;;;14.58;7.25;;;;;;;13.65;92.06;101102.89;1818438;78;21170;-59
2021/04/23 10:40:57;;;;;;;18.15;8.25;;;;;;;13.70;92.95;101096.38;1768520;79;21189;-59
2021/04/23 10:43:27;;;;;;;17.95;8.80;;;;;;;13.81;94.00;101093.67;1806937;78;21058;-57
2021/04/23 10:46:12;;;;;;;13.65;6.70;;;;;;;13.95;94.17;101087.23;1821354;78;21257;-57
2021/04/23 10:48:41;;;;;;;12.05;6.25;;;;;;;14.12;93.84;101093.20;1821507;78;21058;-58
2021/04/23 10:51:24;;;;;;;16.00;6.28;;;;;;;14.23;93.03;101094.08;1821900;78;21101;-58
2021/04/23 10:53:54;;;;;;;12.55;6.28;;;;;;;14.32;92.75;101086.05;1810159;78;21109;-58
2021/04/23 10:56:30;;;;;;;15.43;7.25;;;;;;;14.37;92.06;101090.78;1789704;79;21106;-59
2021/04/23 10:58:59;;;;;;;;;;;;;;;14.33;91.38;101085.10;1756807;80;21406;-58
2021/04/23 11:01:36;;;;;;;14.63;5.97;;;;;;;14.30;91.62;101079.39;1776809;80;20271;-58
2021/04/23 11:04:14;;;;;;;11.33;6.53;;;;;;;14.33;91.51;101073.86;1776782;80;21500;-59
2021/04/23 11:06:53;;;;;;;11.30;6.15;;;;;;;14.36;89.72;101080.05;1776892;80;22215;-58
2021/04/23 11:09:23;;;;;;;8.25;5.20;;;;;;;14.46;88.70;101078.67;1764318;81;21149;-60
2021/04/23 11:12:15;;;;;;;8.45;5.20;;;;;;;14.57;86.08;101069.62;1776791;80;21196;-59
2021/04/23 11:14:44;;;;;;;6.70;5.15;;;;;;;14.69;82.47;101055.13;1776897;80;21361;-58
2021/04/23 11:17:21;;;;;;;10.23;5.67;;;;;;;14.80;79.29;101040.70;1764300;81;21121;-59
2021/04/23 11:19:50;;;;;;;10.90;5.78;;;;;;;14.90;78.02;101042.48;1776806;80;21106;-59
2021/04/23 11:22:24;;;;;;;8.25;5.92;;;;;;;14.99;76.82;101047.91;1764388;81;21065;-58
2021/04/23 11:25:18;;;;;;;9.05;6.55;;;;;;;15.12;76.69;101054.44;1776046;80;22180;-58
2021/04/23 11:28:08;;;;;;;9.88;6.78;;;;;;;15.25;76.74;101051.14;1764306;81;21061;-58
2021/04/23 11:31:06;;;;;;;9.03;6.62;;;;;;;15.30;76.54;101050.42;1753374;80;21071;-57
2021/04/23 11:33:51;;;;;;;10.03;6.97;;;;;;;15.33;76.74;101062.42;1764332;81;21077;-59
2021/04/23 11:36:26;;;;;;;8.58;6.30;;;;;;;15.31;76.46;101057.12;1764273;80;21168;-59